Carson City, Nevada
Current Conditions -  °F | °C
As of 8:15 PM on Wednesday 22 Oct 2014 (Local Time) from KCXP Reporting Station
Clear Clear  
Wind Chill: 63°   Ceiling: Unl
Heat Index: 63°   Visibility: 10mi
Dew Point: 28°   Wind: 6mph
Humidity: 27%   Direction: 310°NW
Pressure: 30.09"   Gusts: NA
Location:  39.16°N, 119.77°W
Report Text: KCXP 230315Z AUTO 31005KT 10SM CLR 17/M02 A3009 RMK AO2
Loading
Personal Weather Stations






























Interactive Weather Map New forecast layout! Learn more

10-Day Weather Forecast

Advertisements
Track Severe Weather on mobile